Terminal Aerodrome Forecast
Issued by NWS Newport/Morehead City, NC

Home | Current Version | Previous Version | Text Only | Print | Product List | Glossary On
Versions: 1 2 3 4 5 6 7 8 9 10 11 12 13 14 15 16 17 18
000
FTUS42 KMHX 312337
TAFEWN
TAF
KEWN 312337Z 0100/0124 VRB05KT P6SM VCTS SCT050CB
      TEMPO 0100/0102 BKN040CB
     FM010300 VRB02KT P6SM FEW010 SCT050
     FM010800 00000KT 4SM BR SCT010
     FM011200 19007KT P6SM SCT050=

USA.gov is the U.S. government's official web portal to all federal, state and local government web resources and services.